PWSweather.com
Personal Weather Stations
Station Observations
COONRAPIDS
Minneapolis, MN 55433

Minneapolis, MN 55433

Lat: 45.187721, Lon: -93.36828

Elevation: 898

Station Type: Davis Vantage Pro 2

Latest ConditionsUpdated 9:10:01 AM CDT Wednesday, Oct 1, 2014
Currently Today's Max Today's Min Today's Average
Temperature 49.9°F9.9°C 53.1°F11.7°C 49.9°F9.9°C 51.3°F10.7°C
Dew Point 46.8°F8.2°C 46.8°F8.2°C 43.9°F6.6°C 45.0°F7.2°C
Winds Calm Calm 0.8 mph SE1.3 kmh SE - 0.1 mph 0.2 kmh
Wind Gusts -- 6.0 mph9.7 kmh - -
Humidity 89% 89% 75% 79%
Pressure 29.80 in1009.1 mb 29.85 in1010.8 mb 29.80 in1009.1 mb -
Precipitation - 0.14 in3.6 mm - -
Hour Temp Dew Point Humidity Winds Wind Gusts Pressure Precip Precip Rate Daily Precip Total
09:10 AM 49.9°F9.9°C 46.8°F8.2°C 89% Calm Calm -- 29.80 in1009.1 mb 0.03 in0.8 mm 0.18 in/hr4.6 mm/hr 0.14 in3.6 mm
09:00 AM 49.9°F9.9°C 46.5°F8.1°C 88% Calm Calm -- 29.80 in1009.1 mb 0.02 in0.5 mm 0.02 in/hr0.5 mm/hr 0.11 in2.8 mm
08:50 AM 49.9°F9.9°C 46.5°F8.1°C 88% Calm Calm 1.0 mph1.6 kmh 29.80 in1009.1 mb 0.02 in0.5 mm 0.12 in/hr3.0 mm/hr 0.09 in2.3 mm
08:40 AM 49.9°F9.9°C 46.5°F8.1°C 88% Calm Calm -- 29.81 in1009.5 mb 0.02 in0.5 mm 0.12 in/hr3.0 mm/hr 0.07 in1.8 mm
08:30 AM 50.0°F10.0°C 46.3°F7.9°C 87% Calm Calm -- 29.81 in1009.5 mb 0.03 in0.8 mm 0.18 in/hr4.6 mm/hr 0.06 in1.5 mm
08:20 AM 50.2°F10.1°C 46.2°F7.9°C 86% Calm Calm -- 29.81 in1009.5 mb 0.02 in0.5 mm 0.12 in/hr3.0 mm/hr 0.03 in0.8 mm
08:10 AM 50.4°F10.2°C 46.1°F7.8°C 85% Calm Calm 2.0 mph3.2 kmh 29.81 in1009.5 mb 0.01 in0.3 mm 0.06 in/hr1.5 mm/hr 0.01 in0.3 mm
08:00 AM 50.5°F10.3°C 45.8°F7.7°C 84% Calm Calm -- 29.81 in1009.5 mb 0.00 in0.0 mm 0.00 in/hr0.0 mm/hr 0.00 in0.0 mm
07:50 AM 50.7°F10.4°C 45.8°F7.7°C 83% Calm Calm -- 29.81 in1009.5 mb 0.00 in0.0 mm 0.00 in/hr0.0 mm/hr 0.00 in0.0 mm
07:40 AM 51.1°F10.6°C 45.5°F7.5°C 81% 0.1 mph SE0.2 kmh SE 6.0 mph9.7 kmh 29.81 in1009.5 mb 0.00 in0.0 mm 0.00 in/hr0.0 mm/hr 0.00 in0.0 mm
07:30 AM 51.3°F10.7°C 45.3°F7.4°C 80% Calm Calm -- 29.80 in1009.1 mb 0.00 in0.0 mm 0.00 in/hr0.0 mm/hr 0.00 in0.0 mm
07:20 AM 51.5°F10.8°C 44.8°F7.1°C 78% 0.1 mph SE0.2 kmh SE 2.0 mph3.2 kmh 29.80 in1009.1 mb 0.00 in0.0 mm 0.00 in/hr0.0 mm/hr 0.00 in0.0 mm
07:10 AM 51.5°F10.8°C 44.9°F7.2°C 78% Calm Calm -- 29.80 in1009.1 mb 0.00 in0.0 mm 0.00 in/hr0.0 mm/hr 0.00 in0.0 mm
07:00 AM 51.5°F10.8°C 44.9°F7.2°C 78% Calm Calm -- 29.80 in1009.1 mb 0.00 in0.0 mm 0.00 in/hr0.0 mm/hr 0.00 in0.0 mm
06:50 AM 51.4°F10.8°C 44.8°F7.1°C 78% Calm Calm -- 29.80 in1009.1 mb 0.00 in0.0 mm 0.00 in/hr0.0 mm/hr 0.00 in0.0 mm
06:40 AM 51.4°F10.8°C 44.8°F7.1°C 78% Calm Calm -- 29.80 in1009.1 mb 0.00 in0.0 mm 0.00 in/hr0.0 mm/hr 0.00 in0.0 mm
06:30 AM 51.3°F10.7°C 44.7°F7.1°C 78% Calm Calm -- 29.80 in1009.1 mb 0.00 in0.0 mm 0.00 in/hr0.0 mm/hr 0.00 in0.0 mm
06:20 AM 51.2°F10.7°C 44.6°F7.0°C 78% 0.6 mph SSE1.0 kmh SSE 4.0 mph6.4 kmh 29.80 in1009.1 mb 0.00 in0.0 mm 0.00 in/hr0.0 mm/hr 0.00 in0.0 mm
06:10 AM 51.1°F10.6°C 44.5°F6.9°C 78% Calm Calm -- 29.80 in1009.1 mb 0.00 in0.0 mm 0.00 in/hr0.0 mm/hr 0.00 in0.0 mm
06:00 AM 51.0°F10.6°C 44.4°F6.9°C 78% Calm Calm -- 29.80 in1009.1 mb 0.00 in0.0 mm 0.00 in/hr0.0 mm/hr 0.00 in0.0 mm
05:50 AM 50.8°F10.4°C 43.9°F6.6°C 77% Calm Calm -- 29.80 in1009.1 mb 0.00 in0.0 mm 0.00 in/hr0.0 mm/hr 0.00 in0.0 mm
05:40 AM 50.9°F10.5°C 44.3°F6.8°C 78% Calm Calm -- 29.80 in1009.1 mb 0.00 in0.0 mm 0.00 in/hr0.0 mm/hr 0.00 in0.0 mm
05:30 AM 50.9°F10.5°C 44.3°F6.8°C 78% Calm Calm -- 29.81 in1009.5 mb 0.00 in0.0 mm 0.00 in/hr0.0 mm/hr 0.00 in0.0 mm
05:20 AM 51.0°F10.6°C 44.4°F6.9°C 78% Calm Calm -- 29.81 in1009.5 mb 0.00 in0.0 mm 0.00 in/hr0.0 mm/hr 0.00 in0.0 mm
05:10 AM 51.0°F10.6°C 44.4°F6.9°C 78% Calm Calm -- 29.80 in1009.1 mb 0.00 in0.0 mm 0.00 in/hr0.0 mm/hr 0.00 in0.0 mm
05:00 AM 50.9°F10.5°C 44.6°F7.0°C 79% Calm Calm -- 29.80 in1009.1 mb 0.00 in0.0 mm 0.00 in/hr0.0 mm/hr 0.00 in0.0 mm
04:50 AM 50.8°F10.4°C 44.2°F6.8°C 78% Calm Calm -- 29.81 in1009.5 mb 0.00 in0.0 mm 0.00 in/hr0.0 mm/hr 0.00 in0.0 mm
04:40 AM 50.7°F10.4°C 44.1°F6.7°C 78% 0.5 mph SE0.8 kmh SE 4.0 mph6.4 kmh 29.80 in1009.1 mb 0.00 in0.0 mm 0.00 in/hr0.0 mm/hr 0.00 in0.0 mm
04:30 AM 50.6°F10.3°C 44.0°F6.7°C 78% Calm Calm -- 29.80 in1009.1 mb 0.00 in0.0 mm 0.00 in/hr0.0 mm/hr 0.00 in0.0 mm
04:20 AM 50.6°F10.3°C 44.0°F6.7°C 78% Calm Calm -- 29.80 in1009.1 mb 0.00 in0.0 mm 0.00 in/hr0.0 mm/hr 0.00 in0.0 mm
04:10 AM 50.8°F10.4°C 44.2°F6.8°C 78% Calm Calm -- 29.81 in1009.5 mb 0.00 in0.0 mm 0.00 in/hr0.0 mm/hr 0.00 in0.0 mm
04:00 AM 50.8°F10.4°C 44.2°F6.8°C 78% Calm Calm -- 29.81 in1009.5 mb 0.00 in0.0 mm 0.00 in/hr0.0 mm/hr 0.00 in0.0 mm
03:50 AM 50.8°F10.4°C 44.2°F6.8°C 78% 0.4 mph SE0.6 kmh SE 3.0 mph4.8 kmh 29.81 in1009.5 mb 0.00 in0.0 mm 0.00 in/hr0.0 mm/hr 0.00 in0.0 mm
03:40 AM 50.9°F10.5°C 44.2°F6.8°C 78% Calm Calm -- 29.81 in1009.5 mb 0.00 in0.0 mm 0.00 in/hr0.0 mm/hr 0.00 in0.0 mm
03:30 AM 50.9°F10.5°C 44.6°F7.0°C 79% Calm Calm -- 29.81 in1009.5 mb 0.00 in0.0 mm 0.00 in/hr0.0 mm/hr 0.00 in0.0 mm
03:20 AM 51.0°F10.6°C 44.4°F6.9°C 78% 0.1 mph SE0.2 kmh SE 2.0 mph3.2 kmh 29.81 in1009.5 mb 0.00 in0.0 mm 0.00 in/hr0.0 mm/hr 0.00 in0.0 mm
03:00 AM 51.2°F10.7°C 44.6°F7.0°C 78% 0.1 mph SE0.2 kmh SE 1.0 mph1.6 kmh 29.81 in1009.5 mb 0.00 in0.0 mm 0.00 in/hr0.0 mm/hr 0.00 in0.0 mm
02:40 AM 51.5°F10.8°C 44.9°F7.2°C 78% Calm Calm -- 29.82 in1009.8 mb 0.00 in0.0 mm 0.00 in/hr0.0 mm/hr 0.00 in0.0 mm
02:30 AM 51.7°F10.9°C 45.1°F7.3°C 78% Calm Calm -- 29.82 in1009.8 mb 0.00 in0.0 mm 0.00 in/hr0.0 mm/hr 0.00 in0.0 mm
02:20 AM 51.9°F11.1°C 44.9°F7.2°C 77% 0.1 mph ESE0.2 kmh ESE -- 29.82 in1009.8 mb 0.00 in0.0 mm 0.00 in/hr0.0 mm/hr 0.00 in0.0 mm
02:10 AM 52.0°F11.1°C 45.0°F7.2°C 77% Calm Calm -- 29.82 in1009.8 mb 0.00 in0.0 mm 0.00 in/hr0.0 mm/hr 0.00 in0.0 mm
02:00 AM 52.1°F11.2°C 44.8°F7.1°C 76% 0.5 mph ESE0.8 kmh ESE 2.0 mph3.2 kmh 29.83 in1010.2 mb 0.00 in0.0 mm 0.00 in/hr0.0 mm/hr 0.00 in0.0 mm
01:50 AM 52.4°F11.3°C 45.4°F7.4°C 77% 0.1 mph S0.2 kmh S -- 29.82 in1009.8 mb 0.00 in0.0 mm 0.00 in/hr0.0 mm/hr 0.00 in0.0 mm
01:40 AM 52.4°F11.3°C 45.1°F7.3°C 76% 0.5 mph SE0.8 kmh SE -- 29.83 in1010.2 mb 0.00 in0.0 mm 0.00 in/hr0.0 mm/hr 0.00 in0.0 mm
01:30 AM 52.5°F11.4°C 45.2°F7.3°C 76% 0.8 mph SE1.3 kmh SE 1.0 mph1.6 kmh 29.83 in1010.2 mb 0.00 in0.0 mm 0.00 in/hr0.0 mm/hr 0.00 in0.0 mm
01:20 AM 52.5°F11.4°C 45.2°F7.3°C 76% 0.2 mph SE0.3 kmh SE -- 29.83 in1010.2 mb 0.00 in0.0 mm 0.00 in/hr0.0 mm/hr 0.00 in0.0 mm
01:10 AM 52.5°F11.4°C 45.2°F7.3°C 76% Calm Calm -- 29.83 in1010.2 mb 0.00 in0.0 mm 0.00 in/hr0.0 mm/hr 0.00 in0.0 mm
01:00 AM 52.4°F11.3°C 45.1°F7.3°C 76% Calm Calm -- 29.83 in1010.2 mb 0.00 in0.0 mm 0.00 in/hr0.0 mm/hr 0.00 in0.0 mm
12:50 AM 52.4°F11.3°C 45.1°F7.3°C 76% Calm Calm -- 29.83 in1010.2 mb 0.00 in0.0 mm 0.00 in/hr0.0 mm/hr 0.00 in0.0 mm
12:40 AM 52.6°F11.4°C 45.2°F7.3°C 76% 0.6 mph SE1.0 kmh SE 3.0 mph4.8 kmh 29.84 in1010.5 mb 0.00 in0.0 mm 0.00 in/hr0.0 mm/hr 0.00 in0.0 mm
12:30 AM 52.9°F11.6°C 45.2°F7.3°C 75% Calm Calm -- 29.84 in1010.5 mb 0.00 in0.0 mm 0.00 in/hr0.0 mm/hr 0.00 in0.0 mm
12:20 AM 53.1°F11.7°C 45.4°F7.4°C 75% 0.1 mph SSE0.2 kmh SSE 3.0 mph4.8 kmh 29.85 in1010.8 mb 0.00 in0.0 mm 0.00 in/hr0.0 mm/hr 0.00 in0.0 mm
12:10 AM 52.9°F11.6°C 45.2°F7.3°C 75% 0.6 mph SE1.0 kmh SE 3.0 mph4.8 kmh 29.85 in1010.8 mb 0.00 in0.0 mm 0.00 in/hr0.0 mm/hr 0.00 in0.0 mm
12:00 AM 52.8°F11.6°C 45.1°F7.3°C 75% Calm Calm -- 29.85 in1010.8 mb 0.00 in0.0 mm 0.00 in/hr0.0 mm/hr 0.00 in0.0 mm